sensor_id;sensor_type;location;lat;lon;timestamp;P1;durP1;ratioP1;P2;durP2;ratioP2
52564;SDS011;38460;53.106;7.004;2023-05-07T00:00:20;25.33;;;16.73;;
52564;SDS011;38460;53.106;7.004;2023-05-07T00:02:46;25.67;;;17.13;;
52564;SDS011;38460;53.106;7.004;2023-05-07T00:05:12;25.40;;;17.58;;
52564;SDS011;38460;53.106;7.004;2023-05-07T00:07:38;26.75;;;17.48;;
52564;SDS011;38460;53.106;7.004;2023-05-07T00:10:04;25.20;;;17.02;;
52564;SDS011;38460;53.106;7.004;2023-05-07T00:12:31;24.02;;;16.95;;
52564;SDS011;38460;53.106;7.004;2023-05-07T00:15:03;24.15;;;17.15;;
52564;SDS011;38460;53.106;7.004;2023-05-07T00:17:30;23.27;;;16.95;;
52564;SDS011;38460;53.106;7.004;2023-05-07T00:19:56;24.10;;;17.50;;
52564;SDS011;38460;53.106;7.004;2023-05-07T00:22:22;28.63;;;18.63;;
52564;SDS011;38460;53.106;7.004;2023-05-07T00:24:47;26.85;;;18.08;;
52564;SDS011;38460;53.106;7.004;2023-05-07T00:27:13;24.25;;;17.50;;
52564;SDS011;38460;53.106;7.004;2023-05-07T00:29:39;28.25;;;18.30;;
52564;SDS011;38460;53.106;7.004;2023-05-07T00:32:05;26.85;;;18.50;;
52564;SDS011;38460;53.106;7.004;2023-05-07T00:34:30;25.88;;;18.58;;
52564;SDS011;38460;53.106;7.004;2023-05-07T00:36:56;25.85;;;18.08;;
52564;SDS011;38460;53.106;7.004;2023-05-07T00:39:22;24.25;;;17.38;;
52564;SDS011;38460;53.106;7.004;2023-05-07T00:41:47;27.42;;;17.65;;
52564;SDS011;38460;53.106;7.004;2023-05-07T00:44:13;26.25;;;18.83;;
52564;SDS011;38460;53.106;7.004;2023-05-07T00:46:39;27.50;;;19.02;;
52564;SDS011;38460;53.106;7.004;2023-05-07T00:49:05;24.40;;;16.90;;
52564;SDS011;38460;53.106;7.004;2023-05-07T00:51:31;24.05;;;17.40;;
52564;SDS011;38460;53.106;7.004;2023-05-07T00:53:58;26.70;;;17.10;;
52564;SDS011;38460;53.106;7.004;2023-05-07T00:56:25;26.92;;;18.80;;
52564;SDS011;38460;53.106;7.004;2023-05-07T00:58:52;23.80;;;17.38;;
52564;SDS011;38460;53.106;7.004;2023-05-07T01:01:18;25.23;;;17.48;;
52564;SDS011;38460;53.106;7.004;2023-05-07T01:03:43;28.92;;;18.83;;
52564;SDS011;38460;53.106;7.004;2023-05-07T01:06:09;23.58;;;17.73;;
52564;SDS011;38460;53.106;7.004;2023-05-07T01:08:38;27.90;;;17.92;;
52564;SDS011;38460;53.106;7.004;2023-05-07T01:11:05;26.83;;;19.13;;
52564;SDS011;38460;53.106;7.004;2023-05-07T01:13:32;31.73;;;19.40;;
52564;SDS011;38460;53.106;7.004;2023-05-07T01:15:58;27.52;;;19.05;;
52564;SDS011;38460;53.106;7.004;2023-05-07T01:18:24;23.90;;;17.55;;
52564;SDS011;38460;53.106;7.004;2023-05-07T01:20:51;33.15;;;19.08;;
52564;SDS011;38460;53.106;7.004;2023-05-07T01:23:18;27.70;;;18.30;;
52564;SDS011;38460;53.106;7.004;2023-05-07T01:25:50;27.80;;;18.80;;
52564;SDS011;38460;53.106;7.004;2023-05-07T01:28:19;28.15;;;20.33;;
52564;SDS011;38460;53.106;7.004;2023-05-07T01:30:49;30.83;;;19.60;;
52564;SDS011;38460;53.106;7.004;2023-05-07T01:33:21;27.63;;;18.98;;
52564;SDS011;38460;53.106;7.004;2023-05-07T01:35:48;26.95;;;18.48;;
52564;SDS011;38460;53.106;7.004;2023-05-07T01:38:16;30.33;;;19.55;;
52564;SDS011;38460;53.106;7.004;2023-05-07T01:40:43;30.50;;;20.88;;
52564;SDS011;38460;53.106;7.004;2023-05-07T01:43:10;33.67;;;21.65;;
52564;SDS011;38460;53.106;7.004;2023-05-07T01:45:36;28.20;;;20.30;;
52564;SDS011;38460;53.106;7.004;2023-05-07T01:48:02;33.22;;;19.90;;
52564;SDS011;38460;53.106;7.004;2023-05-07T01:50:28;29.13;;;19.73;;
52564;SDS011;38460;53.106;7.004;2023-05-07T01:52:55;30.00;;;19.60;;
52564;SDS011;38460;53.106;7.004;2023-05-07T01:55:21;30.52;;;20.92;;
52564;SDS011;38460;53.106;7.004;2023-05-07T01:57:47;31.40;;;20.02;;
52564;SDS011;38460;53.106;7.004;2023-05-07T02:00:13;30.38;;;21.58;;
52564;SDS011;38460;53.106;7.004;2023-05-07T02:02:39;30.33;;;20.60;;
52564;SDS011;38460;53.106;7.004;2023-05-07T02:05:05;28.55;;;19.33;;
52564;SDS011;38460;53.106;7.004;2023-05-07T02:07:31;31.80;;;21.67;;
52564;SDS011;38460;53.106;7.004;2023-05-07T02:09:56;31.05;;;21.05;;
52564;SDS011;38460;53.106;7.004;2023-05-07T02:12:22;29.63;;;19.38;;
52564;SDS011;38460;53.106;7.004;2023-05-07T02:14:48;34.38;;;20.52;;
52564;SDS011;38460;53.106;7.004;2023-05-07T02:17:14;32.35;;;20.90;;
52564;SDS011;38460;53.106;7.004;2023-05-07T02:19:40;31.65;;;21.38;;
52564;SDS011;38460;53.106;7.004;2023-05-07T02:22:06;31.60;;;21.38;;
52564;SDS011;38460;53.106;7.004;2023-05-07T02:24:32;33.63;;;22.10;;
52564;SDS011;38460;53.106;7.004;2023-05-07T02:26:58;33.83;;;21.23;;
52564;SDS011;38460;53.106;7.004;2023-05-07T02:29:24;35.35;;;22.42;;
52564;SDS011;38460;53.106;7.004;2023-05-07T02:31:49;32.88;;;23.05;;
52564;SDS011;38460;53.106;7.004;2023-05-07T02:34:18;31.85;;;22.13;;
52564;SDS011;38460;53.106;7.004;2023-05-07T02:36:43;35.50;;;22.10;;
52564;SDS011;38460;53.106;7.004;2023-05-07T02:39:10;36.42;;;23.05;;
52564;SDS011;38460;53.106;7.004;2023-05-07T02:41:40;31.95;;;20.88;;
52564;SDS011;38460;53.106;7.004;2023-05-07T02:44:06;34.15;;;22.13;;
52564;SDS011;38460;53.106;7.004;2023-05-07T02:46:32;30.33;;;21.10;;
52564;SDS011;38460;53.106;7.004;2023-05-07T02:48:58;31.23;;;21.95;;
52564;SDS011;38460;53.106;7.004;2023-05-07T02:51:23;36.20;;;22.00;;
52564;SDS011;38460;53.106;7.004;2023-05-07T02:53:51;32.95;;;21.88;;
52564;SDS011;38460;53.106;7.004;2023-05-07T02:56:16;32.05;;;21.25;;
52564;SDS011;38460;53.106;7.004;2023-05-07T02:58:42;31.35;;;22.00;;
52564;SDS011;38460;53.106;7.004;2023-05-07T03:01:08;29.67;;;20.73;;
52564;SDS011;38460;53.106;7.004;2023-05-07T03:03:34;31.90;;;22.75;;
52564;SDS011;38460;53.106;7.004;2023-05-07T03:06:00;31.10;;;20.88;;
52564;SDS011;38460;53.106;7.004;2023-05-07T03:08:26;31.52;;;21.33;;
52564;SDS011;38460;53.106;7.004;2023-05-07T03:10:52;29.50;;;20.67;;
52564;SDS011;38460;53.106;7.004;2023-05-07T03:13:18;31.65;;;21.08;;
52564;SDS011;38460;53.106;7.004;2023-05-07T03:15:44;32.13;;;22.10;;
52564;SDS011;38460;53.106;7.004;2023-05-07T03:18:10;31.90;;;21.05;;
52564;SDS011;38460;53.106;7.004;2023-05-07T03:20:36;32.85;;;22.58;;
52564;SDS011;38460;53.106;7.004;2023-05-07T03:23:02;37.17;;;22.58;;
52564;SDS011;38460;53.106;7.004;2023-05-07T03:25:28;31.42;;;21.92;;
52564;SDS011;38460;53.106;7.004;2023-05-07T03:27:55;35.20;;;22.35;;
52564;SDS011;38460;53.106;7.004;2023-05-07T03:30:21;34.58;;;22.92;;
52564;SDS011;38460;53.106;7.004;2023-05-07T03:32:47;35.08;;;21.25;;
52564;SDS011;38460;53.106;7.004;2023-05-07T03:35:13;30.45;;;21.27;;
52564;SDS011;38460;53.106;7.004;2023-05-07T03:37:39;31.45;;;21.20;;
52564;SDS011;38460;53.106;7.004;2023-05-07T03:40:05;30.45;;;20.00;;
52564;SDS011;38460;53.106;7.004;2023-05-07T03:42:32;30.05;;;19.92;;
52564;SDS011;38460;53.106;7.004;2023-05-07T03:44:58;28.48;;;19.65;;
52564;SDS011;38460;53.106;7.004;2023-05-07T03:47:24;29.65;;;21.45;;
52564;SDS011;38460;53.106;7.004;2023-05-07T03:49:49;26.98;;;19.95;;
52564;SDS011;38460;53.106;7.004;2023-05-07T03:52:18;29.25;;;20.40;;
52564;SDS011;38460;53.106;7.004;2023-05-07T03:54:48;32.40;;;20.48;;
52564;SDS011;38460;53.106;7.004;2023-05-07T03:57:13;27.08;;;20.02;;
52564;SDS011;38460;53.106;7.004;2023-05-07T03:59:39;33.45;;;21.25;;
52564;SDS011;38460;53.106;7.004;2023-05-07T04:02:05;32.65;;;20.33;;
52564;SDS011;38460;53.106;7.004;2023-05-07T04:04:31;29.48;;;19.75;;
52564;SDS011;38460;53.106;7.004;2023-05-07T04:06:58;30.77;;;20.70;;
52564;SDS011;38460;53.106;7.004;2023-05-07T04:09:24;26.45;;;19.02;;
52564;SDS011;38460;53.106;7.004;2023-05-07T04:11:50;29.00;;;19.95;;
52564;SDS011;38460;53.106;7.004;2023-05-07T04:14:16;28.10;;;19.70;;
52564;SDS011;38460;53.106;7.004;2023-05-07T04:16:42;28.27;;;19.42;;
52564;SDS011;38460;53.106;7.004;2023-05-07T04:19:07;31.50;;;20.15;;
52564;SDS011;38460;53.106;7.004;2023-05-07T04:21:33;31.58;;;20.65;;
52564;SDS011;38460;53.106;7.004;2023-05-07T04:23:59;29.25;;;19.52;;
52564;SDS011;38460;53.106;7.004;2023-05-07T04:26:25;30.58;;;19.45;;
52564;SDS011;38460;53.106;7.004;2023-05-07T04:28:51;28.33;;;19.35;;
52564;SDS011;38460;53.106;7.004;2023-05-07T04:31:16;27.73;;;19.45;;
52564;SDS011;38460;53.106;7.004;2023-05-07T04:33:42;29.95;;;20.00;;
52564;SDS011;38460;53.106;7.004;2023-05-07T04:36:08;28.35;;;18.05;;
52564;SDS011;38460;53.106;7.004;2023-05-07T04:38:34;26.98;;;18.77;;
52564;SDS011;38460;53.106;7.004;2023-05-07T04:41:03;24.05;;;17.40;;
52564;SDS011;38460;53.106;7.004;2023-05-07T04:43:30;26.92;;;18.45;;
52564;SDS011;38460;53.106;7.004;2023-05-07T04:45:56;28.90;;;17.50;;
52564;SDS011;38460;53.106;7.004;2023-05-07T04:48:21;26.05;;;18.83;;
52564;SDS011;38460;53.106;7.004;2023-05-07T04:50:47;25.20;;;17.58;;
52564;SDS011;38460;53.106;7.004;2023-05-07T04:53:13;27.05;;;18.90;;
52564;SDS011;38460;53.106;7.004;2023-05-07T04:55:39;28.38;;;18.55;;
52564;SDS011;38460;53.106;7.004;2023-05-07T04:58:05;26.73;;;17.42;;
52564;SDS011;38460;53.106;7.004;2023-05-07T05:00:34;24.27;;;15.98;;
52564;SDS011;38460;53.106;7.004;2023-05-07T05:03:00;27.52;;;18.17;;
52564;SDS011;38460;53.106;7.004;2023-05-07T05:05:25;24.90;;;16.95;;
52564;SDS011;38460;53.106;7.004;2023-05-07T05:07:51;23.10;;;15.75;;
52564;SDS011;38460;53.106;7.004;2023-05-07T05:10:17;20.73;;;15.48;;
52564;SDS011;38460;53.106;7.004;2023-05-07T05:12:43;26.10;;;17.70;;
52564;SDS011;38460;53.106;7.004;2023-05-07T05:15:10;24.45;;;17.08;;
52564;SDS011;38460;53.106;7.004;2023-05-07T05:17:36;26.98;;;16.92;;
52564;SDS011;38460;53.106;7.004;2023-05-07T05:20:02;23.45;;;17.70;;
52564;SDS011;38460;53.106;7.004;2023-05-07T05:22:28;23.88;;;17.05;;
52564;SDS011;38460;53.106;7.004;2023-05-07T05:24:56;21.75;;;15.57;;
52564;SDS011;38460;53.106;7.004;2023-05-07T05:27:22;26.80;;;17.00;;
52564;SDS011;38460;53.106;7.004;2023-05-07T05:29:47;23.35;;;16.45;;
52564;SDS011;38460;53.106;7.004;2023-05-07T05:32:13;23.70;;;16.88;;
52564;SDS011;38460;53.106;7.004;2023-05-07T05:34:39;23.67;;;16.58;;
52564;SDS011;38460;53.106;7.004;2023-05-07T05:37:05;20.33;;;15.10;;
52564;SDS011;38460;53.106;7.004;2023-05-07T05:39:31;23.05;;;16.13;;
52564;SDS011;38460;53.106;7.004;2023-05-07T05:41:56;25.83;;;16.27;;
52564;SDS011;38460;53.106;7.004;2023-05-07T05:44:22;25.70;;;16.83;;
52564;SDS011;38460;53.106;7.004;2023-05-07T05:46:48;24.27;;;17.15;;
52564;SDS011;38460;53.106;7.004;2023-05-07T05:49:14;22.23;;;15.90;;
52564;SDS011;38460;53.106;7.004;2023-05-07T05:51:40;24.73;;;17.60;;
52564;SDS011;38460;53.106;7.004;2023-05-07T05:54:06;24.85;;;17.23;;
52564;SDS011;38460;53.106;7.004;2023-05-07T05:56:32;22.73;;;15.68;;
52564;SDS011;38460;53.106;7.004;2023-05-07T05:58:58;23.70;;;15.93;;
52564;SDS011;38460;53.106;7.004;2023-05-07T06:01:24;24.85;;;16.33;;
52564;SDS011;38460;53.106;7.004;2023-05-07T06:03:50;26.13;;;17.05;;
52564;SDS011;38460;53.106;7.004;2023-05-07T06:06:16;23.98;;;16.15;;
52564;SDS011;38460;53.106;7.004;2023-05-07T06:08:41;25.38;;;16.13;;
52564;SDS011;38460;53.106;7.004;2023-05-07T06:11:07;26.30;;;16.20;;
52564;SDS011;38460;53.106;7.004;2023-05-07T06:13:33;24.60;;;16.48;;
52564;SDS011;38460;53.106;7.004;2023-05-07T06:15:59;23.33;;;16.50;;
52564;SDS011;38460;53.106;7.004;2023-05-07T06:18:24;27.13;;;16.95;;
52564;SDS011;38460;53.106;7.004;2023-05-07T06:20:51;26.50;;;17.17;;
52564;SDS011;38460;53.106;7.004;2023-05-07T06:23:17;25.80;;;16.75;;
52564;SDS011;38460;53.106;7.004;2023-05-07T06:25:47;24.98;;;16.80;;
52564;SDS011;38460;53.106;7.004;2023-05-07T06:28:16;25.35;;;17.33;;
52564;SDS011;38460;53.106;7.004;2023-05-07T06:30:43;26.20;;;16.83;;
52564;SDS011;38460;53.106;7.004;2023-05-07T06:33:08;27.52;;;18.10;;
52564;SDS011;38460;53.106;7.004;2023-05-07T06:35:34;26.90;;;17.40;;
52564;SDS011;38460;53.106;7.004;2023-05-07T06:38:00;26.50;;;16.65;;
52564;SDS011;38460;53.106;7.004;2023-05-07T06:40:26;28.88;;;17.45;;
52564;SDS011;38460;53.106;7.004;2023-05-07T06:42:52;23.38;;;16.45;;
52564;SDS011;38460;53.106;7.004;2023-05-07T06:45:19;26.90;;;18.13;;
52564;SDS011;38460;53.106;7.004;2023-05-07T06:47:45;26.40;;;16.88;;
52564;SDS011;38460;53.106;7.004;2023-05-07T06:50:11;28.58;;;18.08;;
52564;SDS011;38460;53.106;7.004;2023-05-07T06:52:36;26.52;;;17.27;;
52564;SDS011;38460;53.106;7.004;2023-05-07T06:55:02;27.77;;;18.13;;
52564;SDS011;38460;53.106;7.004;2023-05-07T06:57:28;27.25;;;16.92;;
52564;SDS011;38460;53.106;7.004;2023-05-07T06:59:54;27.25;;;17.85;;
52564;SDS011;38460;53.106;7.004;2023-05-07T07:02:20;27.30;;;16.45;;
52564;SDS011;38460;53.106;7.004;2023-05-07T07:04:46;27.00;;;17.17;;
52564;SDS011;38460;53.106;7.004;2023-05-07T07:07:11;25.55;;;16.45;;
52564;SDS011;38460;53.106;7.004;2023-05-07T07:09:37;26.20;;;16.90;;
52564;SDS011;38460;53.106;7.004;2023-05-07T07:12:03;23.02;;;17.02;;
52564;SDS011;38460;53.106;7.004;2023-05-07T07:14:29;24.98;;;16.20;;
52564;SDS011;38460;53.106;7.004;2023-05-07T07:16:54;27.00;;;16.98;;
52564;SDS011;38460;53.106;7.004;2023-05-07T07:19:20;26.13;;;17.02;;
52564;SDS011;38460;53.106;7.004;2023-05-07T07:21:46;27.77;;;17.38;;
52564;SDS011;38460;53.106;7.004;2023-05-07T07:24:12;27.95;;;17.35;;
52564;SDS011;38460;53.106;7.004;2023-05-07T07:29:10;25.40;;;17.42;;
52564;SDS011;38460;53.106;7.004;2023-05-07T07:31:35;25.63;;;17.42;;
52564;SDS011;38460;53.106;7.004;2023-05-07T07:34:01;26.67;;;16.88;;
52564;SDS011;38460;53.106;7.004;2023-05-07T07:36:27;29.58;;;17.65;;
52564;SDS011;38460;53.106;7.004;2023-05-07T07:38:53;24.15;;;17.67;;
52564;SDS011;38460;53.106;7.004;2023-05-07T07:41:19;28.95;;;17.55;;
52564;SDS011;38460;53.106;7.004;2023-05-07T07:43:45;26.73;;;17.15;;
52564;SDS011;38460;53.106;7.004;2023-05-07T07:46:12;26.10;;;17.55;;
52564;SDS011;38460;53.106;7.004;2023-05-07T07:48:37;27.35;;;17.20;;
52564;SDS011;38460;53.106;7.004;2023-05-07T07:51:03;23.73;;;16.77;;
52564;SDS011;38460;53.106;7.004;2023-05-07T07:53:29;27.17;;;17.08;;
52564;SDS011;38460;53.106;7.004;2023-05-07T07:55:55;24.42;;;16.40;;
52564;SDS011;38460;53.106;7.004;2023-05-07T07:58:21;25.73;;;17.13;;
52564;SDS011;38460;53.106;7.004;2023-05-07T08:00:47;29.98;;;17.85;;
52564;SDS011;38460;53.106;7.004;2023-05-07T08:03:13;24.73;;;17.50;;
52564;SDS011;38460;53.106;7.004;2023-05-07T08:05:41;22.05;;;16.05;;
52564;SDS011;38460;53.106;7.004;2023-05-07T08:08:07;27.88;;;17.38;;
52564;SDS011;38460;53.106;7.004;2023-05-07T08:10:33;28.27;;;17.35;;
52564;SDS011;38460;53.106;7.004;2023-05-07T08:13:03;25.63;;;17.55;;
52564;SDS011;38460;53.106;7.004;2023-05-07T08:15:30;25.98;;;16.83;;
52564;SDS011;38460;53.106;7.004;2023-05-07T08:17:56;24.42;;;16.83;;
52564;SDS011;38460;53.106;7.004;2023-05-07T08:20:25;26.98;;;16.48;;
52564;SDS011;38460;53.106;7.004;2023-05-07T08:22:51;28.02;;;17.45;;
52564;SDS011;38460;53.106;7.004;2023-05-07T08:25:17;27.08;;;19.23;;
52564;SDS011;38460;53.106;7.004;2023-05-07T08:27:42;22.58;;;16.80;;
52564;SDS011;38460;53.106;7.004;2023-05-07T08:30:10;29.45;;;17.67;;
52564;SDS011;38460;53.106;7.004;2023-05-07T08:32:36;24.05;;;16.50;;
52564;SDS011;38460;53.106;7.004;2023-05-07T08:35:02;26.33;;;16.90;;
52564;SDS011;38460;53.106;7.004;2023-05-07T08:37:27;24.73;;;17.27;;
52564;SDS011;38460;53.106;7.004;2023-05-07T08:39:53;27.58;;;16.65;;
52564;SDS011;38460;53.106;7.004;2023-05-07T08:42:19;27.05;;;17.80;;
52564;SDS011;38460;53.106;7.004;2023-05-07T08:44:48;25.33;;;16.98;;
52564;SDS011;38460;53.106;7.004;2023-05-07T08:47:18;25.30;;;16.40;;
52564;SDS011;38460;53.106;7.004;2023-05-07T08:49:45;25.30;;;17.02;;
52564;SDS011;38460;53.106;7.004;2023-05-07T08:52:12;22.48;;;15.10;;
52564;SDS011;38460;53.106;7.004;2023-05-07T08:54:37;24.35;;;15.38;;
52564;SDS011;38460;53.106;7.004;2023-05-07T08:57:04;21.42;;;15.55;;
52564;SDS011;38460;53.106;7.004;2023-05-07T08:59:30;23.88;;;15.88;;
52564;SDS011;38460;53.106;7.004;2023-05-07T09:01:55;23.40;;;14.90;;
52564;SDS011;38460;53.106;7.004;2023-05-07T09:04:21;23.30;;;15.75;;
52564;SDS011;38460;53.106;7.004;2023-05-07T09:06:47;23.17;;;16.60;;
52564;SDS011;38460;53.106;7.004;2023-05-07T09:09:16;20.42;;;14.90;;
52564;SDS011;38460;53.106;7.004;2023-05-07T09:11:45;23.20;;;15.52;;
52564;SDS011;38460;53.106;7.004;2023-05-07T09:14:11;22.27;;;14.73;;
52564;SDS011;38460;53.106;7.004;2023-05-07T09:16:37;21.42;;;14.98;;
52564;SDS011;38460;53.106;7.004;2023-05-07T09:19:02;22.52;;;15.43;;
52564;SDS011;38460;53.106;7.004;2023-05-07T09:21:28;22.13;;;15.13;;
52564;SDS011;38460;53.106;7.004;2023-05-07T09:23:55;25.40;;;15.68;;
52564;SDS011;38460;53.106;7.004;2023-05-07T09:26:21;21.85;;;14.60;;
52564;SDS011;38460;53.106;7.004;2023-05-07T09:28:47;21.15;;;14.77;;
52564;SDS011;38460;53.106;7.004;2023-05-07T09:31:13;20.27;;;13.93;;
52564;SDS011;38460;53.106;7.004;2023-05-07T09:33:39;19.02;;;13.77;;
52564;SDS011;38460;53.106;7.004;2023-05-07T09:36:05;19.30;;;14.77;;
52564;SDS011;38460;53.106;7.004;2023-05-07T09:38:35;19.77;;;14.88;;
52564;SDS011;38460;53.106;7.004;2023-05-07T09:43:36;19.38;;;13.95;;
52564;SDS011;38460;53.106;7.004;2023-05-07T09:46:04;18.70;;;13.68;;
52564;SDS011;38460;53.106;7.004;2023-05-07T09:48:35;19.17;;;14.40;;
52564;SDS011;38460;53.106;7.004;2023-05-07T09:51:03;19.73;;;13.63;;
52564;SDS011;38460;53.106;7.004;2023-05-07T09:53:47;18.88;;;13.02;;
52564;SDS011;38460;53.106;7.004;2023-05-07T09:56:15;18.58;;;13.68;;
52564;SDS011;38460;53.106;7.004;2023-05-07T09:58:43;20.55;;;13.77;;
52564;SDS011;38460;53.106;7.004;2023-05-07T10:01:10;17.60;;;13.57;;
52564;SDS011;38460;53.106;7.004;2023-05-07T10:03:37;19.85;;;14.05;;
52564;SDS011;38460;53.106;7.004;2023-05-07T10:06:06;17.63;;;12.48;;
52564;SDS011;38460;53.106;7.004;2023-05-07T10:08:33;17.23;;;12.57;;
52564;SDS011;38460;53.106;7.004;2023-05-07T10:11:01;18.23;;;13.55;;
52564;SDS011;38460;53.106;7.004;2023-05-07T10:13:28;16.60;;;12.07;;
52564;SDS011;38460;53.106;7.004;2023-05-07T10:15:55;17.00;;;12.68;;
52564;SDS011;38460;53.106;7.004;2023-05-07T10:18:21;16.42;;;12.68;;
52564;SDS011;38460;53.106;7.004;2023-05-07T10:20:48;16.15;;;13.00;;
52564;SDS011;38460;53.106;7.004;2023-05-07T10:23:19;19.45;;;13.10;;
52564;SDS011;38460;53.106;7.004;2023-05-07T10:25:49;18.15;;;12.48;;
52564;SDS011;38460;53.106;7.004;2023-05-07T10:28:15;16.83;;;12.63;;
52564;SDS011;38460;53.106;7.004;2023-05-07T10:33:19;16.42;;;11.88;;
52564;SDS011;38460;53.106;7.004;2023-05-07T10:35:51;17.10;;;12.77;;
52564;SDS011;38460;53.106;7.004;2023-05-07T10:38:20;17.50;;;13.40;;
52564;SDS011;38460;53.106;7.004;2023-05-07T10:40:46;18.02;;;13.70;;
52564;SDS011;38460;53.106;7.004;2023-05-07T10:43:12;16.30;;;12.95;;
52564;SDS011;38460;53.106;7.004;2023-05-07T10:45:38;16.10;;;12.43;;
52564;SDS011;38460;53.106;7.004;2023-05-07T10:48:07;16.73;;;13.02;;
52564;SDS011;38460;53.106;7.004;2023-05-07T10:50:36;15.40;;;11.77;;
52564;SDS011;38460;53.106;7.004;2023-05-07T10:55:44;16.30;;;12.48;;
52564;SDS011;38460;53.106;7.004;2023-05-07T10:58:29;15.45;;;11.88;;
52564;SDS011;38460;53.106;7.004;2023-05-07T11:01:02;15.25;;;12.63;;
52564;SDS011;38460;53.106;7.004;2023-05-07T11:06:10;16.27;;;12.57;;
52564;SDS011;38460;53.106;7.004;2023-05-07T11:14:09;14.98;;;11.93;;
52564;SDS011;38460;53.106;7.004;2023-05-07T11:16:35;13.85;;;11.40;;
52564;SDS011;38460;53.106;7.004;2023-05-07T11:19:03;14.75;;;11.63;;
52564;SDS011;38460;53.106;7.004;2023-05-07T11:21:39;15.48;;;12.55;;
52564;SDS011;38460;53.106;7.004;2023-05-07T11:24:10;15.13;;;11.88;;
52564;SDS011;38460;53.106;7.004;2023-05-07T11:26:48;15.32;;;11.82;;
52564;SDS011;38460;53.106;7.004;2023-05-07T11:29:16;16.02;;;12.07;;
52564;SDS011;38460;53.106;7.004;2023-05-07T11:31:51;14.00;;;12.18;;
52564;SDS011;38460;53.106;7.004;2023-05-07T11:34:23;15.38;;;11.98;;
52564;SDS011;38460;53.106;7.004;2023-05-07T11:36:50;15.57;;;11.82;;
52564;SDS011;38460;53.106;7.004;2023-05-07T11:39:26;17.92;;;12.23;;
52564;SDS011;38460;53.106;7.004;2023-05-07T11:41:57;15.52;;;11.73;;
52564;SDS011;38460;53.106;7.004;2023-05-07T11:44:43;13.70;;;11.20;;
52564;SDS011;38460;53.106;7.004;2023-05-07T11:47:11;14.48;;;12.35;;
52564;SDS011;38460;53.106;7.004;2023-05-07T11:49:41;18.20;;;12.68;;
52564;SDS011;38460;53.106;7.004;2023-05-07T11:52:07;15.65;;;12.77;;
52564;SDS011;38460;53.106;7.004;2023-05-07T11:54:39;16.23;;;12.23;;
52564;SDS011;38460;53.106;7.004;2023-05-07T11:57:05;16.23;;;12.02;;
52564;SDS011;38460;53.106;7.004;2023-05-07T11:59:39;14.00;;;11.50;;
52564;SDS011;38460;53.106;7.004;2023-05-07T12:02:09;13.35;;;11.88;;
52564;SDS011;38460;53.106;7.004;2023-05-07T12:04:35;12.98;;;11.68;;
52564;SDS011;38460;53.106;7.004;2023-05-07T12:07:03;13.70;;;11.63;;
52564;SDS011;38460;53.106;7.004;2023-05-07T12:09:28;14.38;;;11.85;;
52564;SDS011;38460;53.106;7.004;2023-05-07T12:11:55;12.93;;;11.05;;
52564;SDS011;38460;53.106;7.004;2023-05-07T12:14:21;15.48;;;11.70;;
52564;SDS011;38460;53.106;7.004;2023-05-07T12:16:47;13.00;;;10.48;;
52564;SDS011;38460;53.106;7.004;2023-05-07T12:19:13;15.88;;;12.40;;
52564;SDS011;38460;53.106;7.004;2023-05-07T12:21:39;15.45;;;12.88;;
52564;SDS011;38460;53.106;7.004;2023-05-07T12:24:05;13.25;;;11.82;;
52564;SDS011;38460;53.106;7.004;2023-05-07T12:26:31;12.32;;;11.02;;
52564;SDS011;38460;53.106;7.004;2023-05-07T12:28:57;13.07;;;10.68;;
52564;SDS011;38460;53.106;7.004;2023-05-07T12:31:25;12.93;;;10.80;;
52564;SDS011;38460;53.106;7.004;2023-05-07T12:33:51;12.77;;;10.48;;
52564;SDS011;38460;53.106;7.004;2023-05-07T12:36:17;12.10;;;10.80;;
52564;SDS011;38460;53.106;7.004;2023-05-07T12:38:43;15.40;;;11.75;;
52564;SDS011;38460;53.106;7.004;2023-05-07T12:41:10;11.80;;;10.40;;
52564;SDS011;38460;53.106;7.004;2023-05-07T12:43:37;11.68;;;10.45;;
52564;SDS011;38460;53.106;7.004;2023-05-07T12:46:04;12.02;;;10.45;;
52564;SDS011;38460;53.106;7.004;2023-05-07T12:48:31;15.07;;;10.77;;
52564;SDS011;38460;53.106;7.004;2023-05-07T12:50:58;14.18;;;11.02;;
52564;SDS011;38460;53.106;7.004;2023-05-07T12:53:25;11.95;;;10.65;;
52564;SDS011;38460;53.106;7.004;2023-05-07T12:55:56;13.35;;;10.48;;
52564;SDS011;38460;53.106;7.004;2023-05-07T12:58:27;12.05;;;10.00;;
52564;SDS011;38460;53.106;7.004;2023-05-07T13:01:00;13.25;;;10.18;;
52564;SDS011;38460;53.106;7.004;2023-05-07T13:03:30;11.15;;;10.02;;
52564;SDS011;38460;53.106;7.004;2023-05-07T13:05:58;11.23;;;9.77;;
52564;SDS011;38460;53.106;7.004;2023-05-07T13:08:25;13.75;;;10.35;;
52564;SDS011;38460;53.106;7.004;2023-05-07T13:10:53;11.00;;;9.25;;
52564;SDS011;38460;53.106;7.004;2023-05-07T13:13:19;10.38;;;9.38;;
52564;SDS011;38460;53.106;7.004;2023-05-07T13:15:46;10.32;;;9.23;;
52564;SDS011;38460;53.106;7.004;2023-05-07T13:18:12;10.45;;;9.43;;
52564;SDS011;38460;53.106;7.004;2023-05-07T13:20:38;10.90;;;8.88;;
52564;SDS011;38460;53.106;7.004;2023-05-07T13:23:03;10.48;;;9.07;;
52564;SDS011;38460;53.106;7.004;2023-05-07T13:25:30;11.32;;;9.63;;
52564;SDS011;38460;53.106;7.004;2023-05-07T13:27:58;12.23;;;10.10;;
52564;SDS011;38460;53.106;7.004;2023-05-07T13:30:24;11.88;;;9.15;;
52564;SDS011;38460;53.106;7.004;2023-05-07T13:32:51;10.38;;;9.20;;
52564;SDS011;38460;53.106;7.004;2023-05-07T13:35:20;10.48;;;9.35;;
52564;SDS011;38460;53.106;7.004;2023-05-07T13:37:46;9.80;;;8.57;;
52564;SDS011;38460;53.106;7.004;2023-05-07T13:40:13;10.95;;;9.65;;
52564;SDS011;38460;53.106;7.004;2023-05-07T13:42:39;11.70;;;9.80;;
52564;SDS011;38460;53.106;7.004;2023-05-07T13:45:05;10.13;;;8.75;;
52564;SDS011;38460;53.106;7.004;2023-05-07T13:47:31;10.10;;;8.68;;
52564;SDS011;38460;53.106;7.004;2023-05-07T13:49:56;10.25;;;8.75;;
52564;SDS011;38460;53.106;7.004;2023-05-07T13:52:22;10.43;;;9.10;;
52564;SDS011;38460;53.106;7.004;2023-05-07T13:54:48;10.70;;;9.40;;
52564;SDS011;38460;53.106;7.004;2023-05-07T13:57:14;11.93;;;9.57;;
52564;SDS011;38460;53.106;7.004;2023-05-07T13:59:40;10.60;;;8.98;;
52564;SDS011;38460;53.106;7.004;2023-05-07T14:02:06;10.20;;;8.90;;
52564;SDS011;38460;53.106;7.004;2023-05-07T14:04:32;10.27;;;9.13;;
52564;SDS011;38460;53.106;7.004;2023-05-07T14:06:57;10.93;;;9.82;;
52564;SDS011;38460;53.106;7.004;2023-05-07T14:09:23;11.73;;;10.50;;
52564;SDS011;38460;53.106;7.004;2023-05-07T14:11:49;10.95;;;9.73;;
52564;SDS011;38460;53.106;7.004;2023-05-07T14:14:19;10.65;;;9.55;;
52564;SDS011;38460;53.106;7.004;2023-05-07T14:16:45;11.00;;;9.80;;
52564;SDS011;38460;53.106;7.004;2023-05-07T14:19:11;10.48;;;9.38;;
52564;SDS011;38460;53.106;7.004;2023-05-07T14:21:37;10.55;;;9.45;;
52564;SDS011;38460;53.106;7.004;2023-05-07T14:24:03;9.55;;;8.55;;
52564;SDS011;38460;53.106;7.004;2023-05-07T14:26:31;10.30;;;9.20;;
52564;SDS011;38460;53.106;7.004;2023-05-07T14:28:57;11.65;;;10.48;;
52564;SDS011;38460;53.106;7.004;2023-05-07T14:31:23;10.88;;;9.73;;
52564;SDS011;38460;53.106;7.004;2023-05-07T14:33:50;11.90;;;9.90;;
52564;SDS011;38460;53.106;7.004;2023-05-07T14:36:17;10.80;;;9.70;;
52564;SDS011;38460;53.106;7.004;2023-05-07T14:38:45;12.15;;;10.88;;